createdAt,value
2019-03-20T00:03:37.092Z,1.10
2019-03-20T00:18:39.881Z,1.20
2019-03-20T00:33:42.661Z,1.40
2019-03-20T00:48:45.445Z,1.40
2019-03-20T01:03:48.226Z,1.50
2019-03-20T01:18:51.016Z,1.40
2019-03-20T01:33:54.933Z,1.40
2019-03-20T01:48:56.612Z,1.40
2019-03-20T02:03:59.392Z,1.40
2019-03-20T02:19:02.182Z,1.20
2019-03-20T02:34:05.114Z,1.00
2019-03-20T02:49:07.881Z,1.10
2019-03-20T03:04:10.655Z,0.80
2019-03-20T03:19:13.438Z,0.60
2019-03-20T03:34:16.219Z,0.60
2019-03-20T03:49:19.000Z,0.60
2019-03-20T04:04:22.198Z,0.40
2019-03-20T04:19:24.970Z,0.30
2019-03-20T04:34:27.745Z,0.80
2019-03-20T04:49:30.638Z,0.80
2019-03-20T05:04:33.443Z,0.90
2019-03-20T05:19:36.213Z,1.50
2019-03-20T05:34:40.809Z,1.80
2019-03-20T05:49:43.574Z,2.10
2019-03-20T06:04:46.345Z,2.50
2019-03-20T06:19:49.127Z,2.50
2019-03-20T06:34:51.912Z,2.30
2019-03-20T06:49:54.720Z,2.80
2019-03-20T07:04:57.498Z,3.20
2019-03-20T07:20:00.354Z,3.90
2019-03-20T07:35:03.374Z,4.10
2019-03-20T07:50:06.190Z,4.70
2019-03-20T08:05:09.075Z,5.40
2019-03-20T08:20:11.924Z,6.60
2019-03-20T08:35:14.685Z,6.70
2019-03-20T08:50:17.496Z,6.90
2019-03-20T09:05:20.275Z,7.70
2019-03-20T09:20:23.059Z,7.70
2019-03-20T09:35:25.894Z,8.10
2019-03-20T09:50:29.126Z,8.70
2019-03-20T10:05:31.918Z,8.60
2019-03-20T10:37:02.076Z,22.20
2019-03-20T10:39:46.464Z,22.00
2019-03-20T10:54:49.267Z,22.10
2019-03-20T11:09:52.178Z,11.10
2019-03-20T11:24:55.165Z,10.00
2019-03-20T11:39:57.948Z,9.50
2019-03-20T11:55:00.727Z,9.80
2019-03-20T12:10:03.506Z,9.60
2019-03-20T12:25:06.341Z,9.60
2019-03-20T12:40:09.068Z,9.80
2019-03-20T12:55:11.851Z,9.60
2019-03-20T13:10:14.664Z,9.60
2019-03-20T13:25:17.464Z,9.50
2019-03-20T13:40:20.247Z,9.30
2019-03-20T13:55:23.015Z,9.00
2019-03-20T14:10:25.946Z,9.10
2019-03-20T14:25:28.647Z,9.10
2019-03-20T14:40:35.999Z,9.20
2019-03-20T14:55:34.259Z,9.50
2019-03-20T15:10:45.678Z,9.60
2019-03-20T15:25:40.600Z,9.80
2019-03-20T15:40:56.202Z,9.90
2019-03-20T15:55:52.128Z,9.70
2019-03-20T16:10:54.905Z,9.60
2019-03-20T16:25:57.693Z,9.50
2019-03-20T16:41:00.673Z,9.40
2019-03-20T16:56:03.457Z,9.40
2019-03-20T17:11:06.237Z,9.40
2019-03-20T17:26:09.326Z,9.30
2019-03-20T17:41:12.136Z,9.20
2019-03-20T17:56:15.122Z,9.10
2019-03-20T18:11:17.988Z,9.00
2019-03-20T18:26:20.763Z,8.90
2019-03-20T18:41:23.542Z,8.90
2019-03-20T18:56:26.332Z,8.90
2019-03-20T19:11:30.003Z,8.80
2019-03-20T19:26:35.225Z,8.90
2019-03-20T19:41:38.067Z,8.90
2019-03-20T19:56:41.084Z,8.90
2019-03-20T20:11:43.883Z,8.90
2019-03-20T20:26:47.706Z,8.80
2019-03-20T20:41:50.976Z,8.60
2019-03-20T20:56:53.748Z,8.40
2019-03-20T21:11:56.571Z,8.20
2019-03-20T21:26:59.371Z,8.20
2019-03-20T21:42:02.160Z,8.10
2019-03-20T21:57:04.969Z,8.10
2019-03-20T22:12:07.731Z,8.20
2019-03-20T22:27:10.718Z,8.20
2019-03-20T22:42:13.495Z,8.40
2019-03-20T22:57:16.286Z,8.30
2019-03-20T23:12:22.693Z,8.30
2019-03-20T23:27:25.797Z,8.20
2019-03-20T23:42:31.550Z,8.20
2019-03-20T23:57:34.328Z,8.30
